createdAt,value
2019-05-19T00:00:26.284Z,119.75
2019-05-19T00:00:59.394Z,115.15
2019-05-19T00:01:32.402Z,112.88
2019-05-19T00:02:05.449Z,113.52
2019-05-19T00:02:40.851Z,114.30
2019-05-19T00:03:14.577Z,115.75
2019-05-19T00:03:47.668Z,114.08
2019-05-19T00:04:22.276Z,111.30
2019-05-19T00:04:56.726Z,114.45
2019-05-19T00:05:30.937Z,117.03
2019-05-19T00:06:04.492Z,114.50
2019-05-19T00:06:37.727Z,114.00
2019-05-19T00:07:10.681Z,118.05
2019-05-19T00:07:45.934Z,114.82
2019-05-19T00:08:18.849Z,111.90
2019-05-19T00:08:52.063Z,114.30
2019-05-19T00:09:25.030Z,113.08
2019-05-19T00:09:58.101Z,113.92
2019-05-19T00:10:31.118Z,110.68
2019-05-19T00:11:04.238Z,111.20
2019-05-19T00:11:37.293Z,113.60
2019-05-19T00:12:10.545Z,110.92
2019-05-19T00:12:43.774Z,110.42
2019-05-19T00:13:16.825Z,111.90
2019-05-19T00:13:49.830Z,115.50
2019-05-19T00:14:22.934Z,110.35
2019-05-19T00:14:55.947Z,114.37
2019-05-19T00:15:28.941Z,112.12
2019-05-19T00:16:01.969Z,112.97
2019-05-19T00:16:34.898Z,111.12
2019-05-19T00:17:08.015Z,112.28
2019-05-19T00:17:40.988Z,110.48
2019-05-19T00:18:13.992Z,116.77
2019-05-19T00:18:46.979Z,113.52
2019-05-19T00:19:26.686Z,108.37
2019-05-19T00:19:54.863Z,110.50
2019-05-19T00:20:27.776Z,112.40
2019-05-19T00:21:02.018Z,112.70
2019-05-19T00:21:36.040Z,108.92
2019-05-19T00:22:09.966Z,106.83
2019-05-19T00:22:42.959Z,107.37
2019-05-19T00:23:16.073Z,104.43
2019-05-19T00:23:48.985Z,109.95
2019-05-19T00:24:22.901Z,107.85
2019-05-19T00:24:55.799Z,115.65
2019-05-19T00:25:28.706Z,110.75
2019-05-19T00:26:02.031Z,113.32
2019-05-19T00:26:34.962Z,109.57
2019-05-19T00:27:07.967Z,108.17
2019-05-19T00:27:41.466Z,111.28
2019-05-19T00:28:14.615Z,108.60
2019-05-19T00:28:49.374Z,111.00
2019-05-19T00:29:22.432Z,109.27
2019-05-19T00:29:56.976Z,110.45
2019-05-19T00:30:29.971Z,108.40
2019-05-19T00:31:04.651Z,105.78
2019-05-19T00:31:37.535Z,109.17
2019-05-19T00:32:10.648Z,109.72
2019-05-19T00:32:43.453Z,107.00
2019-05-19T00:33:16.411Z,107.72
2019-05-19T00:33:49.334Z,107.72
2019-05-19T00:34:22.263Z,101.67
2019-05-19T00:34:55.363Z,112.65
2019-05-19T00:35:29.885Z,107.85
2019-05-19T00:36:02.894Z,111.50
2019-05-19T00:36:35.767Z,107.40
2019-05-19T00:37:08.671Z,110.12
2019-05-19T00:37:41.711Z,101.20
2019-05-19T00:38:14.919Z,96.90
2019-05-19T00:38:47.855Z,101.90
2019-05-19T00:39:20.981Z,105.43
2019-05-19T00:39:54.501Z,109.63
2019-05-19T00:40:27.443Z,106.80
2019-05-19T00:41:00.458Z,115.03
2019-05-19T00:41:33.502Z,113.05
2019-05-19T00:42:06.421Z,108.47
2019-05-19T00:42:39.417Z,113.52
2019-05-19T00:43:12.353Z,108.10
2019-05-19T00:43:45.606Z,115.30
2019-05-19T00:44:18.752Z,118.65
2019-05-19T00:44:51.657Z,117.67
2019-05-19T00:45:24.867Z,117.10
2019-05-19T00:45:57.905Z,112.25
2019-05-19T00:46:31.059Z,122.07
2019-05-19T00:47:04.070Z,119.60
2019-05-19T00:47:37.155Z,119.40
2019-05-19T00:48:10.279Z,117.00
2019-05-19T00:48:43.311Z,121.05
2019-05-19T00:49:16.241Z,126.38
2019-05-19T00:49:49.384Z,125.67
2019-05-19T00:50:22.563Z,127.67
2019-05-19T00:50:55.611Z,124.80
2019-05-19T00:51:28.778Z,128.83
2019-05-19T00:52:01.975Z,122.53
2019-05-19T00:52:35.025Z,123.15
2019-05-19T00:53:08.167Z,127.65
2019-05-19T00:53:41.173Z,127.22
2019-05-19T00:54:14.716Z,123.53
2019-05-19T00:54:47.752Z,113.92
2019-05-19T00:55:20.873Z,106.75
2019-05-19T00:55:54.493Z,104.75
2019-05-19T00:56:28.607Z,123.20
2019-05-19T00:57:02.320Z,118.72
2019-05-19T00:57:36.632Z,111.72
2019-05-19T00:58:09.669Z,119.75
2019-05-19T00:58:43.171Z,116.65
2019-05-19T00:59:16.445Z,109.80
2019-05-19T00:59:49.655Z,127.22
2019-05-19T01:00:22.577Z,119.37
2019-05-19T01:00:55.470Z,121.80
2019-05-19T01:01:28.446Z,123.80
2019-05-19T01:02:01.823Z,128.82
2019-05-19T01:02:34.922Z,115.82
2019-05-19T01:03:07.951Z,128.62
2019-05-19T01:03:40.937Z,125.12
2019-05-19T01:04:13.853Z,120.25
2019-05-19T01:04:46.709Z,123.70
2019-05-19T01:05:20.772Z,127.53
2019-05-19T01:05:54.049Z,111.17
2019-05-19T01:06:27.855Z,120.08
2019-05-19T01:07:00.943Z,118.02
2019-05-19T01:07:34.058Z,121.28
2019-05-19T01:08:07.100Z,123.22
2019-05-19T01:08:40.102Z,108.65
2019-05-19T01:09:13.130Z,118.87
2019-05-19T01:09:46.119Z,112.70
2019-05-19T01:10:21.072Z,115.17
2019-05-19T01:10:53.984Z,109.27
2019-05-19T01:11:27.024Z,119.50
2019-05-19T01:12:00.015Z,109.35
2019-05-19T01:12:33.026Z,112.05
2019-05-19T01:13:06.030Z,114.97
2019-05-19T01:13:38.985Z,115.30
2019-05-19T01:14:15.176Z,111.90
2019-05-19T01:14:46.936Z,114.40
2019-05-19T01:15:20.904Z,107.85
2019-05-19T01:15:53.861Z,98.60
2019-05-19T01:16:26.898Z,115.12
2019-05-19T01:17:00.043Z,115.50
2019-05-19T01:17:33.021Z,111.62
2019-05-19T01:18:06.063Z,108.57
2019-05-19T01:18:39.214Z,103.32
2019-05-19T01:19:12.281Z,102.05
2019-05-19T01:19:55.649Z,100.02
2019-05-19T01:20:20.495Z,110.92
2019-05-19T01:20:54.307Z,103.80
2019-05-19T01:21:27.455Z,94.15
2019-05-19T01:22:01.156Z,101.15
2019-05-19T01:22:34.219Z,105.32
2019-05-19T01:23:08.787Z,100.18
2019-05-19T01:23:41.947Z,110.75
2019-05-19T01:24:14.989Z,110.00
2019-05-19T01:24:47.929Z,93.35
2019-05-19T01:25:21.040Z,97.55
2019-05-19T01:25:54.094Z,100.18
2019-05-19T01:26:27.017Z,101.82
2019-05-19T01:27:00.127Z,95.57
2019-05-19T01:27:33.153Z,100.30
2019-05-19T01:28:06.302Z,98.85
2019-05-19T01:28:40.401Z,100.53
2019-05-19T01:29:13.604Z,96.78
2019-05-19T01:29:46.525Z,101.85
2019-05-19T01:30:19.757Z,97.95
2019-05-19T01:30:52.854Z,99.05
2019-05-19T01:31:25.955Z,100.20
2019-05-19T01:31:58.948Z,102.53
2019-05-19T01:32:31.949Z,98.03
2019-05-19T01:33:05.014Z,94.00
2019-05-19T01:33:38.893Z,100.42
2019-05-19T01:34:11.945Z,100.75
2019-05-19T01:34:44.989Z,104.63
2019-05-19T01:35:18.260Z,103.92
2019-05-19T01:35:51.316Z,105.55
2019-05-19T01:36:24.277Z,104.70
2019-05-19T01:36:57.213Z,100.78
2019-05-19T01:37:30.285Z,96.65
2019-05-19T01:38:03.481Z,105.17
2019-05-19T01:38:36.485Z,110.57
2019-05-19T01:39:09.631Z,104.72
2019-05-19T01:39:42.624Z,110.30
2019-05-19T01:40:15.734Z,108.07
2019-05-19T01:40:48.651Z,104.47
2019-05-19T01:41:21.736Z,110.17
2019-05-19T01:41:54.731Z,102.05
2019-05-19T01:42:27.881Z,109.87
2019-05-19T01:43:00.821Z,119.47
2019-05-19T01:43:33.999Z,120.47
2019-05-19T01:44:07.028Z,107.22
2019-05-19T01:44:40.053Z,119.67
2019-05-19T01:45:14.475Z,117.85
2019-05-19T01:45:47.441Z,117.93
2019-05-19T01:46:20.465Z,117.75
2019-05-19T01:46:53.455Z,130.70
2019-05-19T01:47:26.383Z,113.00
2019-05-19T01:47:59.457Z,121.87
2019-05-19T01:48:32.445Z,132.20
2019-05-19T01:49:05.491Z,120.70
2019-05-19T01:49:38.648Z,124.70
2019-05-19T01:50:19.159Z,120.85
2019-05-19T01:50:46.934Z,121.13
2019-05-19T01:51:19.951Z,121.40
2019-05-19T01:51:53.411Z,119.40
2019-05-19T01:52:26.363Z,121.77
2019-05-19T01:53:00.899Z,108.67
2019-05-19T01:53:33.968Z,121.17
2019-05-19T01:54:07.061Z,116.90
2019-05-19T01:54:40.249Z,112.55
2019-05-19T01:55:13.346Z,122.07
2019-05-19T01:55:46.313Z,120.70
2019-05-19T01:56:19.319Z,102.65
2019-05-19T01:56:52.480Z,116.93
2019-05-19T01:57:25.391Z,115.97
2019-05-19T01:57:58.413Z,120.37
2019-05-19T01:58:31.343Z,124.40
2019-05-19T01:59:04.508Z,125.47
2019-05-19T01:59:37.375Z,124.47
2019-05-19T02:00:10.931Z,121.17
2019-05-19T02:00:43.962Z,106.22
2019-05-19T02:01:16.921Z,97.30
2019-05-19T02:01:49.706Z,118.05
2019-05-19T02:02:22.649Z,121.35
2019-05-19T02:02:55.541Z,118.17
2019-05-19T02:03:28.653Z,117.93
2019-05-19T02:04:01.589Z,115.80
2019-05-19T02:04:34.664Z,117.65
2019-05-19T02:05:07.888Z,121.60
2019-05-19T02:05:40.847Z,119.97
2019-05-19T02:06:13.887Z,108.05
2019-05-19T02:06:46.913Z,116.00
2019-05-19T02:07:19.933Z,115.20
2019-05-19T02:07:53.019Z,125.22
2019-05-19T02:08:26.416Z,114.75
2019-05-19T02:08:59.465Z,116.65
2019-05-19T02:09:32.461Z,118.90
2019-05-19T02:10:06.103Z,124.92
2019-05-19T02:10:38.979Z,108.92
2019-05-19T02:11:12.032Z,111.85
2019-05-19T02:11:45.171Z,114.47
2019-05-19T02:12:18.240Z,115.50
2019-05-19T02:12:51.159Z,121.87
2019-05-19T02:13:24.122Z,118.35
2019-05-19T02:13:57.119Z,117.17
2019-05-19T02:14:30.207Z,112.95
2019-05-19T02:15:03.668Z,120.00
2019-05-19T02:15:36.949Z,119.33
2019-05-19T02:16:09.992Z,115.85
2019-05-19T02:16:43.060Z,116.53
2019-05-19T02:17:16.057Z,106.85
2019-05-19T02:17:49.010Z,118.25
2019-05-19T02:18:21.893Z,116.40
2019-05-19T02:18:55.007Z,117.47
2019-05-19T02:19:27.911Z,107.87
2019-05-19T02:20:03.546Z,113.45
2019-05-19T02:20:36.535Z,107.37
2019-05-19T02:21:09.569Z,113.75
2019-05-19T02:21:42.523Z,108.15
2019-05-19T02:22:15.487Z,114.00
2019-05-19T02:22:48.497Z,112.62
2019-05-19T02:23:21.466Z,110.20
2019-05-19T02:23:54.356Z,111.68
2019-05-19T02:24:27.521Z,112.75
2019-05-19T02:25:00.453Z,110.10
2019-05-19T02:25:33.547Z,111.00
2019-05-19T02:26:06.607Z,111.08
2019-05-19T02:26:39.761Z,119.57
2019-05-19T02:27:12.722Z,108.85
2019-05-19T02:27:46.891Z,112.92
2019-05-19T02:28:20.054Z,109.22
2019-05-19T02:28:53.226Z,104.63
2019-05-19T02:29:26.463Z,105.43
2019-05-19T02:29:59.527Z,107.58
2019-05-19T02:30:32.657Z,112.85
2019-05-19T02:31:05.706Z,106.63
2019-05-19T02:31:38.637Z,107.80
2019-05-19T02:32:11.488Z,107.75
2019-05-19T02:32:44.404Z,101.00
2019-05-19T02:33:17.353Z,105.03
2019-05-19T02:33:50.373Z,107.78
2019-05-19T02:34:23.288Z,99.67
2019-05-19T02:34:56.217Z,99.30
2019-05-19T02:35:29.148Z,98.52
2019-05-19T02:36:02.191Z,85.53
2019-05-19T02:36:35.365Z,93.50
2019-05-19T02:37:08.372Z,88.65
2019-05-19T02:37:41.458Z,98.52
2019-05-19T02:38:14.499Z,95.53
2019-05-19T02:38:47.469Z,86.45
2019-05-19T02:39:20.591Z,92.45
2019-05-19T02:39:53.621Z,95.12
2019-05-19T02:40:27.962Z,91.10
2019-05-19T02:41:03.537Z,97.95
2019-05-19T02:41:38.131Z,90.30
2019-05-19T02:42:12.236Z,95.57
2019-05-19T02:42:47.625Z,92.80
2019-05-19T02:43:22.090Z,95.17
2019-05-19T02:43:56.398Z,94.13
2019-05-19T02:44:30.475Z,95.32
2019-05-19T02:45:04.024Z,94.30
2019-05-19T02:45:38.988Z,90.62
2019-05-19T02:46:12.671Z,88.55
2019-05-19T02:46:46.142Z,92.92
2019-05-19T02:47:21.464Z,89.32
2019-05-19T02:47:56.226Z,94.37
2019-05-19T02:48:30.394Z,92.67
2019-05-19T02:49:05.424Z,91.28
2019-05-19T02:49:39.643Z,95.65
2019-05-19T02:50:13.919Z,95.87
2019-05-19T02:50:52.630Z,95.57
2019-05-19T02:51:25.441Z,93.45
2019-05-19T02:52:00.572Z,92.70
2019-05-19T02:52:34.225Z,92.62
2019-05-19T02:53:08.383Z,97.05
2019-05-19T02:53:43.214Z,98.37
2019-05-19T02:54:19.610Z,85.55
2019-05-19T02:54:53.216Z,95.85
2019-05-19T02:55:26.681Z,99.07
2019-05-19T02:56:01.984Z,101.05
2019-05-19T02:56:35.550Z,96.55
2019-05-19T02:57:08.813Z,93.67
2019-05-19T02:57:42.176Z,92.95
2019-05-19T02:58:15.327Z,97.95
2019-05-19T02:58:48.946Z,96.15
2019-05-19T02:59:22.927Z,92.10
2019-05-19T02:59:56.120Z,94.65
2019-05-19T03:00:37.501Z,92.78
2019-05-19T03:01:10.565Z,98.55
2019-05-19T03:02:13.173Z,97.88
2019-05-19T03:02:46.133Z,92.42
2019-05-19T03:03:19.341Z,96.42
2019-05-19T03:03:52.304Z,92.45
2019-05-19T03:04:25.212Z,93.92
2019-05-19T03:04:58.159Z,94.03
2019-05-19T03:05:31.830Z,94.28
2019-05-19T03:06:04.887Z,90.12
2019-05-19T03:06:38.493Z,92.30
2019-05-19T03:07:11.658Z,91.75
2019-05-19T03:07:44.471Z,91.85
2019-05-19T03:08:17.507Z,95.22
2019-05-19T03:08:50.465Z,92.97
2019-05-19T03:09:23.320Z,97.65
2019-05-19T03:09:56.370Z,93.12
2019-05-19T03:10:29.336Z,96.63
2019-05-19T03:11:02.296Z,99.52
2019-05-19T03:11:35.353Z,97.30
2019-05-19T03:12:08.739Z,91.85
2019-05-19T03:12:42.683Z,84.15
2019-05-19T03:13:16.065Z,94.40
2019-05-19T03:13:49.081Z,98.70
2019-05-19T03:14:22.773Z,93.60
2019-05-19T03:14:55.691Z,92.53
2019-05-19T03:15:28.925Z,97.27
2019-05-19T03:16:02.013Z,92.22
2019-05-19T03:16:34.988Z,94.97
2019-05-19T03:17:07.997Z,98.95
2019-05-19T03:17:41.847Z,94.75
2019-05-19T03:18:14.747Z,91.08
2019-05-19T03:18:47.738Z,92.35
2019-05-19T03:19:20.684Z,88.07
2019-05-19T03:19:54.005Z,91.45
2019-05-19T03:20:27.142Z,94.13
2019-05-19T03:21:10.278Z,90.55
2019-05-19T03:21:35.107Z,85.38
2019-05-19T03:22:08.433Z,94.77
2019-05-19T03:22:41.407Z,93.97
2019-05-19T03:23:14.529Z,95.35
2019-05-19T03:23:48.370Z,94.05
2019-05-19T03:24:21.377Z,94.80
2019-05-19T03:24:54.403Z,97.75
2019-05-19T03:25:27.243Z,96.60
2019-05-19T03:26:00.163Z,96.72
2019-05-19T03:26:33.206Z,91.85
2019-05-19T03:27:06.090Z,88.35
2019-05-19T03:27:39.055Z,95.72
2019-05-19T03:28:11.994Z,97.25
2019-05-19T03:28:44.920Z,91.90
2019-05-19T03:29:22.219Z,95.62
2019-05-19T03:29:57.627Z,93.00
2019-05-19T03:30:43.024Z,94.30
2019-05-19T03:31:24.016Z,94.03
2019-05-19T03:32:12.708Z,89.60
2019-05-19T03:32:50.326Z,93.00
2019-05-19T03:33:27.098Z,96.82
2019-05-19T03:34:00.154Z,91.85
2019-05-19T03:34:32.947Z,99.13
2019-05-19T03:35:06.000Z,91.32
2019-05-19T03:35:39.124Z,92.30
2019-05-19T03:36:12.197Z,96.90
2019-05-19T03:36:45.157Z,92.15
2019-05-19T03:37:18.099Z,94.92
2019-05-19T03:37:51.010Z,94.72
2019-05-19T03:38:24.134Z,97.30
2019-05-19T03:38:57.335Z,93.90
2019-05-19T03:39:30.407Z,96.67
2019-05-19T03:40:05.657Z,93.92
2019-05-19T03:40:38.747Z,97.95
2019-05-19T03:41:12.626Z,88.80
2019-05-19T03:41:45.502Z,92.53
2019-05-19T03:42:18.829Z,95.70
2019-05-19T03:42:51.979Z,90.03
2019-05-19T03:43:26.583Z,88.17
2019-05-19T03:43:59.664Z,94.05
2019-05-19T03:44:32.593Z,93.72
2019-05-19T03:45:05.762Z,95.12
2019-05-19T03:45:38.890Z,95.45
2019-05-19T03:46:11.981Z,92.40
2019-05-19T03:46:46.157Z,91.80
2019-05-19T03:47:19.203Z,91.78
2019-05-19T03:47:52.180Z,94.05
2019-05-19T03:48:25.169Z,94.13
2019-05-19T03:48:58.252Z,93.40
2019-05-19T03:49:31.241Z,96.87
2019-05-19T03:50:04.750Z,90.15
2019-05-19T03:50:37.670Z,90.00
2019-05-19T03:51:28.703Z,95.12
2019-05-19T03:51:45.683Z,90.53
2019-05-19T03:52:18.574Z,91.75
2019-05-19T03:52:51.650Z,91.45
2019-05-19T03:53:25.750Z,92.88
2019-05-19T03:53:58.792Z,88.07
2019-05-19T03:54:31.768Z,89.62
2019-05-19T03:55:05.177Z,85.83
2019-05-19T03:55:38.170Z,93.07
2019-05-19T03:56:11.326Z,91.97
2019-05-19T03:56:45.219Z,90.32
2019-05-19T03:57:18.224Z,86.40
2019-05-19T03:57:51.010Z,85.87
2019-05-19T03:58:24.005Z,87.95
2019-05-19T03:58:56.981Z,86.30
2019-05-19T03:59:29.924Z,85.80
2019-05-19T04:00:04.481Z,83.67
2019-05-19T04:00:38.565Z,83.37
2019-05-19T04:01:11.572Z,87.85
2019-05-19T04:01:44.569Z,85.45
2019-05-19T04:02:17.471Z,88.55
2019-05-19T04:02:50.536Z,85.70
2019-05-19T04:03:24.672Z,87.50
2019-05-19T04:03:58.670Z,82.40
2019-05-19T04:04:31.567Z,88.35
2019-05-19T04:05:05.589Z,86.00
2019-05-19T04:05:38.597Z,88.07
2019-05-19T04:06:11.785Z,87.85
2019-05-19T04:06:44.781Z,85.72
2019-05-19T04:07:17.933Z,85.17
2019-05-19T04:07:50.856Z,87.00
2019-05-19T04:08:24.041Z,87.02
2019-05-19T04:08:56.854Z,85.45
2019-05-19T04:09:29.706Z,82.80
2019-05-19T04:10:03.399Z,80.85
2019-05-19T04:10:36.435Z,85.10
2019-05-19T04:11:09.325Z,88.80
2019-05-19T04:11:42.355Z,85.42
2019-05-19T04:12:15.284Z,85.53
2019-05-19T04:12:49.932Z,85.03
2019-05-19T04:13:22.930Z,80.22
2019-05-19T04:13:56.935Z,85.57
2019-05-19T04:14:29.756Z,85.95
2019-05-19T04:15:03.157Z,88.15
2019-05-19T04:15:36.190Z,83.03
2019-05-19T04:16:09.037Z,85.55
2019-05-19T04:16:42.057Z,89.10
2019-05-19T04:17:16.010Z,83.92
2019-05-19T04:17:49.023Z,83.25
2019-05-19T04:18:22.121Z,80.10
2019-05-19T04:18:54.997Z,86.30
2019-05-19T04:19:27.942Z,81.63
2019-05-19T04:20:01.942Z,83.50
2019-05-19T04:20:34.832Z,87.00
2019-05-19T04:21:07.819Z,87.65
2019-05-19T04:21:48.644Z,82.72
2019-05-19T04:22:16.804Z,86.92
2019-05-19T04:22:49.977Z,83.25
2019-05-19T04:23:22.889Z,87.25
2019-05-19T04:23:55.995Z,88.17
2019-05-19T04:24:28.811Z,84.35
2019-05-19T04:25:02.016Z,85.80
2019-05-19T04:25:35.088Z,88.60
2019-05-19T04:26:08.201Z,84.62
2019-05-19T04:26:41.245Z,87.12
2019-05-19T04:27:15.831Z,85.95
2019-05-19T04:27:48.810Z,86.22
2019-05-19T04:28:21.806Z,82.33
2019-05-19T04:28:54.911Z,82.92
2019-05-19T04:29:27.942Z,83.70
2019-05-19T04:30:01.067Z,81.95
2019-05-19T04:30:34.081Z,82.90
2019-05-19T04:31:06.995Z,83.40
2019-05-19T04:31:41.132Z,87.35
2019-05-19T04:32:14.237Z,83.92
2019-05-19T04:32:47.192Z,84.17
2019-05-19T04:33:20.130Z,84.70
2019-05-19T04:33:53.171Z,85.67
2019-05-19T04:34:26.114Z,84.28
2019-05-19T04:35:00.174Z,87.82
2019-05-19T04:35:33.206Z,85.53
2019-05-19T04:36:06.267Z,82.27
2019-05-19T04:36:39.270Z,84.03
2019-05-19T04:37:12.322Z,85.92
2019-05-19T04:37:45.258Z,85.22
2019-05-19T04:38:18.255Z,82.37
2019-05-19T04:38:51.198Z,82.67
2019-05-19T04:39:24.211Z,85.07
2019-05-19T04:39:57.290Z,82.65
2019-05-19T04:40:30.117Z,82.17
2019-05-19T04:41:03.203Z,81.12
2019-05-19T04:41:40.018Z,82.15
2019-05-19T04:42:11.226Z,82.47
2019-05-19T04:42:44.133Z,82.17
2019-05-19T04:43:17.238Z,78.45
2019-05-19T04:43:50.205Z,80.83
2019-05-19T04:44:23.901Z,80.83
2019-05-19T04:44:57.046Z,85.30
2019-05-19T04:45:30.131Z,78.90
2019-05-19T04:46:03.305Z,81.75
2019-05-19T04:46:36.671Z,76.47
2019-05-19T04:47:09.729Z,82.95
2019-05-19T04:47:42.885Z,80.50
2019-05-19T04:48:16.059Z,82.75
2019-05-19T04:48:49.194Z,79.30
2019-05-19T04:49:23.323Z,78.75
2019-05-19T04:49:56.489Z,76.42
2019-05-19T04:50:29.669Z,81.75
2019-05-19T04:51:03.799Z,79.05
2019-05-19T04:51:36.954Z,79.42
2019-05-19T04:52:09.988Z,78.20
2019-05-19T04:52:43.187Z,81.02
2019-05-19T04:53:16.357Z,82.70
2019-05-19T04:53:49.287Z,79.67
2019-05-19T04:54:23.339Z,75.83
2019-05-19T04:54:56.248Z,79.72
2019-05-19T04:55:29.260Z,81.30
2019-05-19T04:56:02.272Z,79.72
2019-05-19T04:56:35.187Z,80.25
2019-05-19T04:57:08.011Z,76.02
2019-05-19T04:57:40.929Z,76.50
2019-05-19T04:58:13.744Z,81.20
2019-05-19T04:58:46.800Z,78.40
2019-05-19T04:59:21.028Z,74.20
2019-05-19T04:59:53.969Z,76.57
2019-05-19T05:00:26.983Z,76.92
2019-05-19T05:00:59.995Z,78.60
2019-05-19T05:01:33.193Z,79.05
2019-05-19T05:02:06.314Z,80.42
2019-05-19T05:02:39.474Z,77.70
2019-05-19T05:03:12.405Z,77.15
2019-05-19T05:03:45.394Z,74.35
2019-05-19T05:04:18.204Z,80.10
2019-05-19T05:04:51.234Z,81.00
2019-05-19T05:05:24.288Z,71.10
2019-05-19T05:05:57.094Z,76.42
2019-05-19T05:06:30.066Z,78.50
2019-05-19T05:07:03.253Z,80.75
2019-05-19T05:07:36.409Z,77.15
2019-05-19T05:08:27.193Z,69.70
2019-05-19T05:08:44.816Z,78.60
2019-05-19T05:09:18.254Z,76.13
2019-05-19T05:09:54.608Z,78.65
2019-05-19T05:10:27.535Z,75.30
2019-05-19T05:11:00.448Z,74.67
2019-05-19T05:11:33.567Z,77.92
2019-05-19T05:12:06.572Z,75.03
2019-05-19T05:12:39.672Z,76.35
2019-05-19T05:13:12.753Z,78.70
2019-05-19T05:13:46.797Z,78.20
2019-05-19T05:14:19.817Z,71.97
2019-05-19T05:14:53.006Z,74.77
2019-05-19T05:15:26.145Z,72.05
2019-05-19T05:15:59.147Z,73.85
2019-05-19T05:16:32.165Z,77.12
2019-05-19T05:17:05.193Z,74.65
2019-05-19T05:17:38.266Z,70.57
2019-05-19T05:18:11.466Z,68.95
2019-05-19T05:18:47.704Z,71.42
2019-05-19T05:19:19.237Z,72.95
2019-05-19T05:19:52.049Z,75.80
2019-05-19T05:20:26.823Z,75.15
2019-05-19T05:21:00.966Z,71.90
2019-05-19T05:21:33.881Z,70.80
2019-05-19T05:22:20.998Z,75.12
2019-05-19T05:22:41.888Z,78.28
2019-05-19T05:23:15.203Z,74.67
2019-05-19T05:23:48.125Z,75.47
2019-05-19T05:24:21.155Z,75.95
2019-05-19T05:24:54.200Z,74.77
2019-05-19T05:25:27.213Z,77.60
2019-05-19T05:26:00.263Z,71.97
2019-05-19T05:26:33.172Z,77.90
2019-05-19T05:27:06.221Z,71.00
2019-05-19T05:27:39.189Z,73.57
2019-05-19T05:28:12.103Z,75.85
2019-05-19T05:28:45.027Z,75.00
2019-05-19T05:29:18.081Z,77.78
2019-05-19T05:29:51.107Z,74.65
2019-05-19T05:30:23.937Z,76.47
2019-05-19T05:30:56.870Z,76.45
2019-05-19T05:31:29.801Z,72.40
2019-05-19T05:32:02.874Z,74.50
2019-05-19T05:32:35.872Z,72.78
2019-05-19T05:33:08.830Z,75.45
2019-05-19T05:33:41.829Z,73.00
2019-05-19T05:34:14.742Z,72.08
2019-05-19T05:34:47.599Z,75.12
2019-05-19T05:35:20.654Z,77.82
2019-05-19T05:35:53.569Z,73.20
2019-05-19T05:36:27.818Z,72.15
2019-05-19T05:37:01.031Z,73.07
2019-05-19T05:37:34.961Z,71.15
2019-05-19T05:38:07.846Z,71.90
2019-05-19T05:38:40.887Z,73.87
2019-05-19T05:39:14.665Z,75.75
2019-05-19T05:39:47.581Z,73.67
2019-05-19T05:40:20.639Z,76.10
2019-05-19T05:40:53.555Z,66.60
2019-05-19T05:41:26.709Z,70.22
2019-05-19T05:41:59.632Z,75.85
2019-05-19T05:42:32.669Z,69.72
2019-05-19T05:43:05.625Z,71.12
2019-05-19T05:43:38.644Z,72.97
2019-05-19T05:44:11.695Z,73.02
2019-05-19T05:44:44.607Z,73.33
2019-05-19T05:45:17.741Z,69.12
2019-05-19T05:45:50.751Z,72.53
2019-05-19T05:46:23.833Z,73.33
2019-05-19T05:46:57.005Z,73.30
2019-05-19T05:47:30.905Z,70.28
2019-05-19T05:48:03.882Z,71.20
2019-05-19T05:48:36.808Z,71.53
2019-05-19T05:49:09.717Z,68.28
2019-05-19T05:49:42.791Z,70.22
2019-05-19T05:50:15.966Z,69.17
2019-05-19T05:50:49.039Z,70.20
2019-05-19T05:51:22.000Z,74.10
2019-05-19T05:51:56.349Z,71.57
2019-05-19T05:52:38.027Z,70.80
2019-05-19T05:53:04.355Z,67.33
2019-05-19T05:53:37.405Z,69.22
2019-05-19T05:54:10.527Z,70.28
2019-05-19T05:54:43.583Z,67.82
2019-05-19T05:55:16.652Z,72.35
2019-05-19T05:55:50.859Z,68.45
2019-05-19T05:56:23.804Z,70.17
2019-05-19T05:56:56.779Z,68.45
2019-05-19T05:57:30.425Z,71.53
2019-05-19T05:58:03.551Z,65.80
2019-05-19T05:58:36.533Z,70.32
2019-05-19T05:59:09.472Z,70.40
2019-05-19T05:59:42.308Z,67.05
2019-05-19T06:00:15.918Z,71.12
2019-05-19T06:00:49.251Z,64.35
2019-05-19T06:01:22.163Z,65.22
2019-05-19T06:01:55.105Z,67.20
2019-05-19T06:02:28.209Z,68.72
2019-05-19T06:03:01.157Z,61.28
2019-05-19T06:03:34.131Z,67.45
2019-05-19T06:04:07.405Z,67.80
2019-05-19T06:04:40.210Z,67.58
2019-05-19T06:05:13.145Z,67.27
2019-05-19T06:05:46.300Z,65.15
2019-05-19T06:06:19.225Z,66.85
2019-05-19T06:06:52.141Z,66.90
2019-05-19T06:07:26.457Z,68.65
2019-05-19T06:07:59.473Z,65.52
2019-05-19T06:08:32.403Z,67.37
2019-05-19T06:09:06.458Z,68.07
2019-05-19T06:09:40.534Z,66.30
2019-05-19T06:10:13.791Z,66.07
2019-05-19T06:10:46.995Z,66.60
2019-05-19T06:11:20.117Z,60.35
2019-05-19T06:11:53.149Z,64.77
2019-05-19T06:12:26.328Z,67.08
2019-05-19T06:12:59.300Z,64.37
2019-05-19T06:13:32.367Z,66.10
2019-05-19T06:14:05.559Z,66.57
2019-05-19T06:14:38.471Z,63.68
2019-05-19T06:15:11.883Z,66.50
2019-05-19T06:15:45.228Z,66.87
2019-05-19T06:16:18.435Z,59.60
2019-05-19T06:16:51.435Z,63.90
2019-05-19T06:17:24.583Z,62.33
2019-05-19T06:17:57.543Z,64.53
2019-05-19T06:18:30.582Z,65.92
2019-05-19T06:19:03.718Z,65.22
2019-05-19T06:19:36.770Z,62.62
2019-05-19T06:20:09.701Z,65.90
2019-05-19T06:20:42.739Z,63.68
2019-05-19T06:21:15.692Z,61.70
2019-05-19T06:21:48.713Z,61.08
2019-05-19T06:22:21.814Z,65.32
2019-05-19T06:22:56.915Z,62.33
2019-05-19T06:23:29.915Z,66.50
2019-05-19T06:24:02.956Z,65.20
2019-05-19T06:24:36.006Z,60.70
2019-05-19T06:25:10.807Z,63.80
2019-05-19T06:25:44.002Z,65.15
2019-05-19T06:26:17.045Z,64.65
2019-05-19T06:26:50.226Z,63.83
2019-05-19T06:27:23.249Z,66.85
2019-05-19T06:27:56.328Z,64.90
2019-05-19T06:28:29.546Z,64.97
2019-05-19T06:29:02.569Z,66.22
2019-05-19T06:29:35.845Z,65.30
2019-05-19T06:30:09.356Z,63.50
2019-05-19T06:30:43.265Z,65.55
2019-05-19T06:31:16.181Z,65.92
2019-05-19T06:31:49.397Z,67.47
2019-05-19T06:32:29.793Z,66.33
2019-05-19T06:33:02.944Z,64.87
2019-05-19T06:33:35.862Z,67.55
2019-05-19T06:34:09.028Z,64.35
2019-05-19T06:34:42.135Z,64.32
2019-05-19T06:35:15.832Z,63.42
2019-05-19T06:35:49.323Z,65.28
2019-05-19T06:36:23.427Z,65.52
2019-05-19T06:36:56.365Z,65.25
2019-05-19T06:37:29.347Z,64.87
2019-05-19T06:38:02.861Z,66.25
2019-05-19T06:38:36.174Z,65.87
2019-05-19T06:39:10.282Z,65.67
2019-05-19T06:39:43.185Z,66.00
2019-05-19T06:40:16.899Z,64.80
2019-05-19T06:40:50.025Z,63.87
2019-05-19T06:41:23.026Z,63.10
2019-05-19T06:41:55.936Z,62.55
2019-05-19T06:42:28.841Z,64.22
2019-05-19T06:43:03.591Z,64.53
2019-05-19T06:43:36.666Z,62.27
2019-05-19T06:44:09.701Z,64.32
2019-05-19T06:44:42.730Z,65.20
2019-05-19T06:45:16.575Z,60.23
2019-05-19T06:45:49.495Z,62.62
2019-05-19T06:46:22.571Z,63.90
2019-05-19T06:46:55.476Z,63.08
2019-05-19T06:47:28.521Z,61.18
2019-05-19T06:48:01.474Z,61.88
2019-05-19T06:48:34.417Z,62.33
2019-05-19T06:49:07.536Z,61.75
2019-05-19T06:49:40.537Z,61.53
2019-05-19T06:50:14.017Z,63.38
2019-05-19T06:50:47.067Z,65.80
2019-05-19T06:51:20.065Z,65.40
2019-05-19T06:51:53.096Z,62.55
2019-05-19T06:52:27.652Z,64.55
2019-05-19T06:53:13.540Z,64.77
2019-05-19T06:53:35.973Z,64.17
2019-05-19T06:54:09.104Z,63.23
2019-05-19T06:54:42.276Z,64.77
2019-05-19T06:55:16.507Z,61.98
2019-05-19T06:55:49.500Z,61.50
2019-05-19T06:56:22.471Z,60.92
2019-05-19T06:56:55.550Z,63.48
2019-05-19T06:57:28.571Z,63.28
2019-05-19T06:58:02.672Z,64.15
2019-05-19T06:58:35.851Z,63.70
2019-05-19T06:59:10.346Z,63.90
2019-05-19T06:59:43.388Z,63.70
2019-05-19T07:00:16.355Z,61.92
2019-05-19T07:00:49.882Z,60.03
2019-05-19T07:01:22.782Z,62.90
2019-05-19T07:01:55.822Z,62.35
2019-05-19T07:02:28.975Z,65.28
2019-05-19T07:03:02.152Z,65.05
2019-05-19T07:03:35.114Z,63.58
2019-05-19T07:04:08.284Z,61.85
2019-05-19T07:04:41.411Z,63.80
2019-05-19T07:05:14.641Z,64.65
2019-05-19T07:05:47.537Z,64.32